Welcome to our new website - Change to new (Cheaper) Web Site Hosters is complete now I think everything is working
Been testing a few things and hope to rearrange the menus in the next week or two


Porch more information Porch


Driveway more information Driveway


Fitzroy Storm Glass more information Fitzroy Storm Glass


Visit our other Web Sites:

Tokoroa Info
Shinning a light on Tokoroa



Nearby METAR Reports

   
YSSY - Sydney
Updated: 20-10-2017 23:00
Mostly Cloudy  
Mostly Cloudy  
   Wind: South 38.9 km/h
Wind: South 38.9 km/h
Temperature: 17°C
Dew Point: 10°C
Humidity: 64%
Barometer: 1023 hPa
Clouds: Mostly Cloudy
Visibility: More than 10 km
Cloud details: Partly Cloudy 3500 ft,
Mostly Cloudy 4500 ft
YSSY 201000Z 17021KT 9999 SCT035 BKN045 17/10 Q1023 NOSIG
YBBN - Brisbane
Updated: 20-10-2017 23:00
Clear  
Clear  
   Wind: North 18.5 km/h
Wind: North 18.5 km/h
Temperature: 21°C
Dew Point: 16°C
Humidity: 73%
Barometer: 1017 hPa
Visibility: More than 10 km
Cloud details: Clear
YBBN 201000Z 36010KT CAVOK 21/16 Q1017 NOSIG
YPPH - Perth
Updated: 20-10-2017 23:00
Clear  
Clear  
   Wind: ESE 13 km/h
Wind: ESE 13 km/h
Temperature: 27°C
Dew Point: 5°C
Humidity: 24%
Barometer: 1020 hPa
Visibility: More than 10 km
Cloud details: Clear
YPPH 201000Z 12007KT CAVOK 27/05 Q1020 NOSIG
NZCH - Christchurch
Updated: 20-10-2017 23:30
Overcast  
Overcast  
   Wind: ENE 18.5 km/h
Wind: ENE 18.5 km/h
Temperature: 12°C
Dew Point: 11°C
Humidity: 94%
Barometer: 1007 hPa
Clouds: Overcast
Visibility: More than 10 km
Cloud details: Overcast 600 ft
NZCH 201030Z AUTO 06010KT 9999 OVC006/// 12/11 Q1007 NOSIG
  

Script developed by  Saratoga-weather.org Adapted for the template by  Weerstation Leuven